createdAt,value
2019-02-07T00:01:36.120Z,12.17
2019-02-07T00:04:09.852Z,4.00
2019-02-07T00:06:43.460Z,8.80
2019-02-07T00:09:17.348Z,3.40
2019-02-07T00:11:51.291Z,12.33
2019-02-07T00:14:25.598Z,6.40
2019-02-07T00:16:59.327Z,9.07
2019-02-07T00:19:33.106Z,7.53
2019-02-07T00:22:08.780Z,9.60
2019-02-07T00:24:43.189Z,4.20
2019-02-07T00:27:18.939Z,10.93
2019-02-07T00:29:53.995Z,13.87
2019-02-07T00:32:28.671Z,9.35
2019-02-07T00:35:02.339Z,22.80
2019-02-07T00:37:37.382Z,18.57
2019-02-07T00:40:13.678Z,6.73
2019-02-07T00:42:47.440Z,24.90
2019-02-07T00:45:21.556Z,51.53
2019-02-07T00:47:56.393Z,11.33
2019-02-07T00:50:31.181Z,12.98
2019-02-07T00:53:04.730Z,21.57
2019-02-07T00:55:38.374Z,13.33
2019-02-07T00:58:12.911Z,31.90
2019-02-07T01:00:46.661Z,28.77
2019-02-07T01:03:20.516Z,32.13
2019-02-07T01:05:54.196Z,28.90
2019-02-07T01:08:27.850Z,31.40
2019-02-07T01:11:01.725Z,27.97
2019-02-07T01:13:41.994Z,29.83
2019-02-07T01:16:15.576Z,17.77
2019-02-07T01:18:49.135Z,28.70
2019-02-07T01:21:22.707Z,11.33
2019-02-07T01:23:57.335Z,25.73
2019-02-07T01:26:30.941Z,20.93
2019-02-07T01:29:04.628Z,26.23
2019-02-07T01:31:38.462Z,12.80
2019-02-07T01:34:13.755Z,24.37
2019-02-07T01:36:48.314Z,30.17
2019-02-07T01:39:22.008Z,19.23
2019-02-07T01:41:57.232Z,38.70
2019-02-07T01:44:31.712Z,44.75
2019-02-07T01:47:05.542Z,8.33
2019-02-07T01:49:39.239Z,12.00
2019-02-07T01:52:14.712Z,13.65
2019-02-07T01:54:48.174Z,10.30
2019-02-07T01:57:21.752Z,28.40
2019-02-07T01:59:55.293Z,23.60
2019-02-07T02:02:28.929Z,19.67
2019-02-07T02:05:03.928Z,22.30
2019-02-07T02:07:37.533Z,17.48
2019-02-07T02:10:19.719Z,13.23
2019-02-07T02:12:53.797Z,15.07
2019-02-07T02:15:27.706Z,17.03
2019-02-07T02:18:01.199Z,13.37
2019-02-07T02:20:36.004Z,13.60
2019-02-07T02:23:09.634Z,15.03
2019-02-07T02:25:44.837Z,18.70
2019-02-07T02:28:18.498Z,18.87
2019-02-07T02:30:53.675Z,23.40
2019-02-07T02:33:27.249Z,16.23
2019-02-07T02:36:02.548Z,13.27
2019-02-07T02:38:37.307Z,11.33
2019-02-07T02:41:11.337Z,24.37
2019-02-07T02:43:44.886Z,15.80
2019-02-07T02:46:18.453Z,18.40
2019-02-07T02:48:51.987Z,22.00
2019-02-07T02:51:25.399Z,23.70
2019-02-07T02:53:58.971Z,15.33
2019-02-07T02:56:32.426Z,23.83
2019-02-07T02:59:06.735Z,18.95
2019-02-07T03:01:40.295Z,25.47
2019-02-07T03:04:15.517Z,13.90
2019-02-07T03:06:49.165Z,14.80
2019-02-07T03:09:22.919Z,19.00
2019-02-07T03:11:56.609Z,22.07
2019-02-07T03:14:30.336Z,40.00
2019-02-07T03:17:04.132Z,26.97
2019-02-07T03:19:38.060Z,36.10
2019-02-07T03:22:12.092Z,23.85
2019-02-07T03:24:45.943Z,15.50
2019-02-07T03:27:19.535Z,15.85
2019-02-07T03:29:53.206Z,26.37
2019-02-07T03:32:27.880Z,23.00
2019-02-07T03:35:03.675Z,27.67
2019-02-07T03:37:39.872Z,18.87
2019-02-07T03:40:15.223Z,27.63
2019-02-07T03:42:49.241Z,18.17
2019-02-07T03:45:23.436Z,23.55
2019-02-07T03:47:57.469Z,23.27
2019-02-07T03:50:31.639Z,19.00
2019-02-07T03:53:07.412Z,17.43
2019-02-07T03:55:44.997Z,18.07
2019-02-07T03:58:20.500Z,21.90
2019-02-07T04:00:56.488Z,54.10
2019-02-07T04:03:32.416Z,20.57
2019-02-07T04:06:09.387Z,17.83
2019-02-07T04:08:45.151Z,20.33
2019-02-07T04:11:21.102Z,14.18
2019-02-07T04:13:56.989Z,26.50
2019-02-07T04:16:33.044Z,16.67
2019-02-07T04:19:08.925Z,17.67
2019-02-07T04:21:44.484Z,14.00
2019-02-07T04:24:20.582Z,30.27
2019-02-07T04:26:56.315Z,14.93
2019-02-07T04:29:32.153Z,10.27
2019-02-07T04:32:08.004Z,23.30
2019-02-07T04:34:45.674Z,14.00
2019-02-07T04:37:21.442Z,32.63
2019-02-07T04:39:57.346Z,23.43
2019-02-07T04:42:35.751Z,24.03
2019-02-07T04:45:12.284Z,12.63
2019-02-07T04:47:48.880Z,15.03
2019-02-07T04:50:30.429Z,22.13
2019-02-07T04:53:04.739Z,16.77
2019-02-07T04:55:38.994Z,13.18
2019-02-07T04:58:13.031Z,23.83
2019-02-07T05:00:47.429Z,14.10
2019-02-07T05:03:21.727Z,17.50
2019-02-07T05:05:56.124Z,26.33
2019-02-07T05:08:36.237Z,26.43
2019-02-07T05:11:11.460Z,15.00
2019-02-07T05:13:46.945Z,19.53
2019-02-07T05:16:20.839Z,23.87
2019-02-07T05:18:54.961Z,19.73
2019-02-07T05:21:28.927Z,13.33
2019-02-07T05:24:02.899Z,12.20
2019-02-07T05:26:36.725Z,60.00
2019-02-07T05:29:10.630Z,16.40
2019-02-07T05:31:44.269Z,20.20
2019-02-07T05:34:18.513Z,17.57
2019-02-07T05:36:52.765Z,19.73
2019-02-07T05:39:26.843Z,13.53
2019-02-07T05:42:01.306Z,23.27
2019-02-07T05:44:35.713Z,22.30
2019-02-07T05:47:10.339Z,15.97
2019-02-07T05:49:46.951Z,23.77
2019-02-07T05:52:21.462Z,18.60
2019-02-07T05:54:57.448Z,21.23
2019-02-07T05:57:32.187Z,25.23
2019-02-07T06:00:09.931Z,20.33
2019-02-07T06:02:44.460Z,12.13
2019-02-07T06:05:19.090Z,19.85
2019-02-07T06:07:54.641Z,18.73
2019-02-07T06:10:29.502Z,19.37
2019-02-07T06:13:04.310Z,34.13
2019-02-07T06:15:39.611Z,26.75
2019-02-07T06:18:16.103Z,19.50
2019-02-07T06:20:51.537Z,28.98
2019-02-07T06:23:26.643Z,27.20
2019-02-07T06:26:01.747Z,16.37
2019-02-07T06:28:36.844Z,17.43
2019-02-07T06:31:11.695Z,13.30
2019-02-07T06:33:46.361Z,17.67
2019-02-07T06:36:21.537Z,18.73
2019-02-07T06:38:56.182Z,26.80
2019-02-07T06:41:34.277Z,17.37
2019-02-07T06:44:08.679Z,15.70
2019-02-07T06:46:43.246Z,23.20
2019-02-07T06:49:17.757Z,26.07
2019-02-07T06:51:54.587Z,19.43
2019-02-07T06:54:29.547Z,22.53
2019-02-07T06:57:04.719Z,16.35
2019-02-07T06:59:41.029Z,22.60
2019-02-07T07:02:15.378Z,16.80
2019-02-07T07:04:51.299Z,20.10
2019-02-07T07:07:27.406Z,34.83
2019-02-07T07:10:04.421Z,17.92
2019-02-07T07:12:38.636Z,14.93
2019-02-07T07:15:16.456Z,19.53
2019-02-07T07:18:10.639Z,15.97
2019-02-07T07:20:45.380Z,29.10
2019-02-07T07:23:19.699Z,17.20
2019-02-07T07:25:55.493Z,20.87
2019-02-07T07:28:30.746Z,18.37
2019-02-07T07:31:05.237Z,19.50
2019-02-07T07:33:39.399Z,20.30
2019-02-07T07:36:16.189Z,15.07
2019-02-07T07:38:50.663Z,17.73
2019-02-07T07:41:27.044Z,19.80
2019-02-07T07:44:02.221Z,31.60
2019-02-07T07:46:40.939Z,24.17
2019-02-07T07:49:16.477Z,20.87
2019-02-07T07:51:59.225Z,10.13
2019-02-07T07:54:36.926Z,11.27
2019-02-07T07:57:12.654Z,23.00
2019-02-07T07:59:48.291Z,21.30
2019-02-07T08:02:25.870Z,15.53
2019-02-07T08:05:00.325Z,23.37
2019-02-07T08:07:34.973Z,12.73
2019-02-07T08:10:12.306Z,18.27
2019-02-07T08:12:47.167Z,19.53
2019-02-07T08:15:21.551Z,17.70
2019-02-07T08:17:56.017Z,19.83
2019-02-07T08:20:30.644Z,23.07
2019-02-07T08:23:05.032Z,11.03
2019-02-07T08:26:00.846Z,12.87
2019-02-07T08:28:37.276Z,31.23
2019-02-07T08:31:12.926Z,14.53
2019-02-07T08:33:50.059Z,15.97
2019-02-07T08:36:25.173Z,19.80
2019-02-07T08:39:02.953Z,19.60
2019-02-07T08:41:40.313Z,29.15
2019-02-07T08:44:15.626Z,27.30
2019-02-07T08:46:50.635Z,16.62
2019-02-07T08:49:27.486Z,18.27
2019-02-07T08:52:03.523Z,24.37
2019-02-07T08:54:38.871Z,27.47
2019-02-07T08:57:14.238Z,19.50
2019-02-07T08:59:49.822Z,19.70
2019-02-07T09:02:25.457Z,22.73
2019-02-07T09:05:04.031Z,19.90
2019-02-07T09:07:39.293Z,23.33
2019-02-07T09:10:19.343Z,16.60
2019-02-07T09:12:55.302Z,24.10
2019-02-07T09:15:31.155Z,20.60
2019-02-07T09:18:10.281Z,19.00
2019-02-07T09:20:44.663Z,17.33
2019-02-07T09:23:20.121Z,19.80
2019-02-07T09:25:56.943Z,27.43
2019-02-07T09:28:35.648Z,23.63
2019-02-07T09:31:11.708Z,26.83
2019-02-07T09:33:49.899Z,23.20
2019-02-07T09:36:28.241Z,28.37
2019-02-07T09:39:05.972Z,18.70
2019-02-07T09:41:41.381Z,30.03
2019-02-07T09:44:17.416Z,45.03
2019-02-07T09:46:53.212Z,40.67
2019-02-07T09:49:32.938Z,28.27
2019-02-07T09:52:11.537Z,32.00
2019-02-07T09:54:47.125Z,44.00
2019-02-07T09:57:22.410Z,20.17
2019-02-07T10:00:00.396Z,38.30
2019-02-07T10:02:37.038Z,28.03
2019-02-07T10:05:16.367Z,29.20
2019-02-07T10:07:56.096Z,42.67
2019-02-07T10:10:31.915Z,32.80
2019-02-07T10:13:08.119Z,32.58
2019-02-07T10:15:46.503Z,42.67
2019-02-07T10:18:32.819Z,39.67
2019-02-07T10:21:03.648Z,45.60
2019-02-07T10:23:41.992Z,31.12
2019-02-07T10:26:17.221Z,46.67
2019-02-07T10:28:53.020Z,37.03
2019-02-07T10:31:33.414Z,35.00
2019-02-07T10:34:09.190Z,31.23
2019-02-07T10:36:44.318Z,32.47
2019-02-07T10:39:20.132Z,33.97
2019-02-07T10:41:55.994Z,45.30
2019-02-07T10:44:34.498Z,33.18
2019-02-07T10:47:12.951Z,35.17
2019-02-07T10:49:58.673Z,30.23
2019-02-07T10:52:24.588Z,34.40
2019-02-07T10:55:00.830Z,43.13
2019-02-07T10:57:37.376Z,43.00
2019-02-07T11:00:26.488Z,39.23
2019-02-07T11:03:11.770Z,44.15
2019-02-07T11:05:49.452Z,46.73
2019-02-07T11:08:28.425Z,47.90
2019-02-07T11:11:03.743Z,50.00
2019-02-07T11:13:38.412Z,55.87
2019-02-07T11:16:13.026Z,57.17
2019-02-07T11:18:55.231Z,49.10
2019-02-07T11:21:25.290Z,28.70
2019-02-07T11:24:03.823Z,51.80
2019-02-07T11:26:42.146Z,53.10
2019-02-07T11:29:20.077Z,67.73
2019-02-07T11:31:55.165Z,55.60
2019-02-07T11:34:30.462Z,69.85
2019-02-07T11:37:08.120Z,70.07
2019-02-07T11:39:48.902Z,49.80
2019-02-07T11:42:23.918Z,84.07
2019-02-07T11:44:59.281Z,93.35
2019-02-07T11:47:34.909Z,104.77
2019-02-07T11:50:12.820Z,134.97
2019-02-07T11:52:54.304Z,102.97
2019-02-07T11:55:25.462Z,149.50
2019-02-07T11:58:01.504Z,118.95
2019-02-07T12:00:36.613Z,110.90
2019-02-07T12:03:12.436Z,129.97
2019-02-07T12:06:08.652Z,151.87
2019-02-07T12:08:42.938Z,91.15
2019-02-07T12:11:19.604Z,125.07
2019-02-07T12:13:54.549Z,100.30
2019-02-07T12:16:32.819Z,125.03
2019-02-07T12:19:17.772Z,89.47
2019-02-07T12:21:45.760Z,102.73
2019-02-07T12:24:26.465Z,102.67
2019-02-07T12:27:01.779Z,91.42
2019-02-07T12:29:44.332Z,132.30
2019-02-07T12:32:24.132Z,80.23
2019-02-07T12:35:02.913Z,92.23
2019-02-07T12:37:39.354Z,104.03
2019-02-07T12:40:17.917Z,77.40
2019-02-07T12:42:56.471Z,113.80
2019-02-07T12:45:35.132Z,82.20
2019-02-07T12:48:10.694Z,137.07
2019-02-07T12:50:47.397Z,119.60
2019-02-07T12:53:24.573Z,118.47
2019-02-07T12:56:01.319Z,139.23
2019-02-07T12:58:36.072Z,105.63
2019-02-07T13:01:15.144Z,137.47
2019-02-07T13:03:53.145Z,189.13
2019-02-07T13:06:29.132Z,139.17
2019-02-07T13:09:10.512Z,152.97
2019-02-07T13:11:43.718Z,135.73
2019-02-07T13:14:18.895Z,151.90
2019-02-07T13:16:58.152Z,141.20
2019-02-07T13:19:39.940Z,136.40
2019-02-07T13:22:10.182Z,132.17
2019-02-07T13:24:45.110Z,116.50
2019-02-07T13:27:25.211Z,117.77
2019-02-07T13:30:01.243Z,110.70
2019-02-07T13:32:43.024Z,127.55
2019-02-07T13:35:18.875Z,98.60
2019-02-07T13:37:53.796Z,101.50
2019-02-07T13:40:37.732Z,97.23
2019-02-07T13:43:13.890Z,103.80
2019-02-07T13:45:48.963Z,123.77
2019-02-07T13:48:24.498Z,82.97
2019-02-07T13:51:08.209Z,112.13
2019-02-07T13:53:43.319Z,71.97
2019-02-07T13:56:24.330Z,82.27
2019-02-07T13:59:00.797Z,77.50
2019-02-07T14:01:40.845Z,84.30
2019-02-07T14:04:15.832Z,95.63
2019-02-07T14:06:55.228Z,90.87
2019-02-07T14:09:27.956Z,66.03
2019-02-07T14:12:07.332Z,86.67
2019-02-07T14:14:43.730Z,57.97
2019-02-07T14:17:21.500Z,85.10
2019-02-07T14:20:03.871Z,74.07
2019-02-07T14:22:35.616Z,62.90
2019-02-07T14:25:15.877Z,55.03
2019-02-07T14:27:51.256Z,59.33
2019-02-07T14:30:29.366Z,64.20
2019-02-07T14:33:04.069Z,71.62
2019-02-07T14:35:52.418Z,54.23
2019-02-07T14:38:30.550Z,67.32
2019-02-07T14:41:06.293Z,71.10
2019-02-07T14:43:41.008Z,61.28
2019-02-07T14:46:27.263Z,63.40
2019-02-07T14:48:57.926Z,53.20
2019-02-07T14:51:35.810Z,50.50
2019-02-07T14:54:14.095Z,62.03
2019-02-07T14:56:51.233Z,62.20
2019-02-07T14:59:27.447Z,54.63
2019-02-07T15:02:12.687Z,28.70
2019-02-07T15:04:50.691Z,36.70
2019-02-07T15:07:25.372Z,60.47
2019-02-07T15:10:07.894Z,52.60
2019-02-07T15:12:45.320Z,59.50
2019-02-07T15:15:30.345Z,50.67
2019-02-07T15:18:05.731Z,32.83
2019-02-07T15:20:50.409Z,35.30
2019-02-07T15:23:25.153Z,59.60
2019-02-07T15:26:09.463Z,38.13
2019-02-07T15:28:44.183Z,60.60
2019-02-07T15:31:23.182Z,43.50
2019-02-07T15:33:58.778Z,37.93
2019-02-07T15:36:38.659Z,30.33
2019-02-07T15:39:17.954Z,30.10
2019-02-07T15:41:57.867Z,44.57
2019-02-07T15:44:36.417Z,46.80
2019-02-07T15:47:14.971Z,27.47
2019-02-07T15:49:52.632Z,32.33
2019-02-07T15:52:36.067Z,25.17
2019-02-07T15:55:15.508Z,29.87
2019-02-07T15:57:56.235Z,26.03
2019-02-07T16:00:35.438Z,26.20
2019-02-07T16:03:08.602Z,20.00
2019-02-07T16:05:45.545Z,18.87
2019-02-07T16:08:18.503Z,29.50
2019-02-07T16:10:56.674Z,17.50
2019-02-07T16:13:35.385Z,25.33
2019-02-07T16:16:12.670Z,18.10
2019-02-07T16:18:50.679Z,23.73
2019-02-07T16:21:22.195Z,23.03
2019-02-07T16:24:01.646Z,27.47
2019-02-07T16:26:40.620Z,24.50
2019-02-07T16:29:18.701Z,26.13
2019-02-07T16:32:03.811Z,30.43
2019-02-07T16:34:39.389Z,25.65
2019-02-07T16:37:42.460Z,14.33
2019-02-07T16:40:14.178Z,25.30
2019-02-07T16:42:31.310Z,20.07
2019-02-07T16:45:17.680Z,16.93
2019-02-07T16:47:47.149Z,37.47
2019-02-07T16:50:37.630Z,27.37
2019-02-07T16:53:13.845Z,15.43
2019-02-07T16:55:53.872Z,25.65
2019-02-07T16:58:32.124Z,15.20
2019-02-07T17:01:11.158Z,13.47
2019-02-07T17:03:46.358Z,22.70
2019-02-07T17:06:27.129Z,17.37
2019-02-07T17:09:05.213Z,18.17
2019-02-07T17:11:42.386Z,32.67
2019-02-07T17:14:17.257Z,37.73
2019-02-07T17:16:55.700Z,16.13
2019-02-07T17:19:41.847Z,8.78
2019-02-07T17:22:17.773Z,22.87
2019-02-07T17:24:57.336Z,22.75
2019-02-07T17:27:34.679Z,22.40
2019-02-07T17:30:07.303Z,32.03
2019-02-07T17:32:44.839Z,17.97
2019-02-07T17:35:25.592Z,19.77
2019-02-07T17:38:04.015Z,20.97
2019-02-07T17:40:44.123Z,20.87
2019-02-07T17:43:22.043Z,29.55
2019-02-07T17:46:00.539Z,23.53
2019-02-07T17:48:38.598Z,22.20
2019-02-07T17:51:22.921Z,8.47
2019-02-07T17:53:51.628Z,17.50
2019-02-07T17:56:32.287Z,19.80
2019-02-07T17:59:06.297Z,13.60
2019-02-07T18:01:44.321Z,17.60
2019-02-07T18:04:16.737Z,22.20
2019-02-07T18:06:54.449Z,16.90
2019-02-07T18:09:29.262Z,25.93
2019-02-07T18:12:04.337Z,20.57
2019-02-07T18:14:41.804Z,22.03
2019-02-07T18:17:24.900Z,15.10
2019-02-07T18:20:05.438Z,23.95
2019-02-07T18:22:41.062Z,33.20
2019-02-07T18:25:22.970Z,16.80
2019-02-07T18:27:55.350Z,13.25
2019-02-07T18:30:33.597Z,18.40
2019-02-07T18:33:06.681Z,15.77
2019-02-07T18:35:47.057Z,25.67
2019-02-07T18:38:25.411Z,16.47
2019-02-07T18:41:11.580Z,28.15
2019-02-07T18:43:49.938Z,10.40
2019-02-07T18:46:24.062Z,18.06
2019-02-07T18:48:58.714Z,22.63
2019-02-07T18:51:44.941Z,8.77
2019-02-07T18:54:10.036Z,18.53
2019-02-07T18:56:44.549Z,17.27
2019-02-07T18:59:21.763Z,18.80
2019-02-07T19:01:59.987Z,30.53
2019-02-07T19:04:34.793Z,18.73
2019-02-07T19:07:12.499Z,14.67
2019-02-07T19:09:47.268Z,10.47
2019-02-07T19:12:21.539Z,19.43
2019-02-07T19:15:12.862Z,13.00
2019-02-07T19:17:31.505Z,15.85
2019-02-07T19:20:07.312Z,19.50
2019-02-07T19:22:41.803Z,9.73
2019-02-07T19:25:16.839Z,24.03
2019-02-07T19:27:52.342Z,11.60
2019-02-07T19:30:34.701Z,17.17
2019-02-07T19:33:14.116Z,7.60
2019-02-07T19:35:45.106Z,14.83
2019-02-07T19:38:19.778Z,12.37
2019-02-07T19:40:54.341Z,27.37
2019-02-07T19:43:30.656Z,11.57
2019-02-07T19:46:05.404Z,20.00
2019-02-07T19:48:40.146Z,7.30
2019-02-07T19:51:16.974Z,16.30
2019-02-07T19:53:51.805Z,13.17
2019-02-07T19:56:28.616Z,11.27
2019-02-07T19:59:03.583Z,8.47
2019-02-07T20:01:40.113Z,13.18
2019-02-07T20:04:17.510Z,13.00
2019-02-07T20:06:52.480Z,8.07
2019-02-07T20:09:27.452Z,12.83
2019-02-07T20:12:02.596Z,11.70
2019-02-07T20:14:37.930Z,12.00
2019-02-07T20:17:14.219Z,15.88
2019-02-07T20:19:48.849Z,8.27
2019-02-07T20:22:25.767Z,10.53
2019-02-07T20:25:02.746Z,15.03
2019-02-07T20:27:39.062Z,15.10
2019-02-07T20:30:46.349Z,17.40
2019-02-07T20:33:21.228Z,12.68
2019-02-07T20:35:56.268Z,24.97
2019-02-07T20:38:31.445Z,13.70
2019-02-07T20:41:06.259Z,29.20
2019-02-07T20:43:40.759Z,12.45
2019-02-07T20:46:15.698Z,17.10
2019-02-07T20:48:50.424Z,19.40
2019-02-07T20:51:25.669Z,20.13
2019-02-07T20:54:01.481Z,10.97
2019-02-07T20:56:37.149Z,13.80
2019-02-07T20:59:11.787Z,13.40
2019-02-07T21:01:47.951Z,36.50
2019-02-07T21:04:22.711Z,26.67
2019-02-07T21:06:57.137Z,10.87
2019-02-07T21:09:31.928Z,13.83
2019-02-07T21:12:07.216Z,17.60
2019-02-07T21:14:43.515Z,20.75
2019-02-07T21:17:18.728Z,19.27
2019-02-07T21:19:52.297Z,17.17
2019-02-07T21:22:26.305Z,7.83
2019-02-07T21:24:59.810Z,11.03
2019-02-07T21:27:35.281Z,14.23
2019-02-07T21:30:12.881Z,12.88
2019-02-07T21:32:46.792Z,16.63
2019-02-07T21:35:22.185Z,19.77
2019-02-07T21:37:55.866Z,11.10
2019-02-07T21:40:32.170Z,11.43
2019-02-07T21:43:06.392Z,14.30
2019-02-07T21:45:41.931Z,11.07
2019-02-07T21:48:15.670Z,9.53
2019-02-07T21:50:49.133Z,8.77
2019-02-07T21:53:22.767Z,9.38
2019-02-07T21:55:58.050Z,12.70
2019-02-07T21:58:34.315Z,10.93
2019-02-07T22:01:09.310Z,9.23
2019-02-07T22:03:43.033Z,10.97
2019-02-07T22:06:17.056Z,9.30
2019-02-07T22:08:50.708Z,12.00
2019-02-07T22:11:24.327Z,11.67
2019-02-07T22:13:57.982Z,9.40
2019-02-07T22:16:31.784Z,13.07
2019-02-07T22:19:05.481Z,24.33
2019-02-07T22:21:39.144Z,13.77
2019-02-07T22:24:12.598Z,17.92
2019-02-07T22:26:47.383Z,17.50
2019-02-07T22:29:21.262Z,11.10
2019-02-07T22:31:54.826Z,10.63
2019-02-07T22:34:28.437Z,8.98
2019-02-07T22:37:02.069Z,20.50
2019-02-07T22:39:35.461Z,26.45
2019-02-07T22:42:09.137Z,9.70
2019-02-07T22:44:42.784Z,10.30
2019-02-07T22:47:16.358Z,13.07
2019-02-07T22:49:50.037Z,10.23
2019-02-07T22:52:23.891Z,15.70
2019-02-07T22:54:57.453Z,13.20
2019-02-07T22:57:31.566Z,16.23
2019-02-07T23:00:25.745Z,20.37
2019-02-07T23:03:01.058Z,24.63
2019-02-07T23:05:36.116Z,13.20
2019-02-07T23:08:11.503Z,15.33
2019-02-07T23:10:46.258Z,17.70
2019-02-07T23:13:19.980Z,16.17
2019-02-07T23:15:53.725Z,19.70
2019-02-07T23:18:27.208Z,18.20
2019-02-07T23:21:04.624Z,25.07
2019-02-07T23:23:38.207Z,20.27
2019-02-07T23:26:11.672Z,24.32
2019-02-07T23:28:45.209Z,22.93
2019-02-07T23:31:20.774Z,23.37
2019-02-07T23:33:54.396Z,44.10
2019-02-07T23:36:28.161Z,25.87
2019-02-07T23:39:01.790Z,32.40
2019-02-07T23:41:38.980Z,27.82
2019-02-07T23:44:13.395Z,36.00
2019-02-07T23:46:46.960Z,25.00
2019-02-07T23:49:20.580Z,23.83
2019-02-07T23:51:54.241Z,20.97
2019-02-07T23:54:27.773Z,16.25
2019-02-07T23:57:01.295Z,27.13
2019-02-07T23:59:34.839Z,32.77
